Terminal Aerodrome Forecast
Issued by NWS

Home | Current Version | Previous Version | Graphics & Text | Print | Product List | Glossary On
Versions: 1 2 3 4 5 6 7 8 9 10 11 12 13 14 15 16 17 18 19 20 21 22 23 24 25 26 27 28 29 30
000
FTUS45 KGGW 200521
TAFGDV
TAF
KGDV 200521Z 2006/2106 VRB04KT P6SM SKC
     FM210100 29012KT P6SM SCT200
     FM210200 29018G30KT P6SM SCT150
     FM210300 29024G39KT P6SM VCSH SCT080 BKN110=

USA.gov is the U.S. government's official web portal to all federal, state and local government web resources and services.